Time;durP1;ratioP1;P1;durP2;ratioP2;P2;SDS_P1;SDS_P2;PMS_P1;PMS_P2;Temp;Humidity;BMP_temperature;BMP_pressure;BME280_temperature;BME280_humidity;BME280_pressure;Samples;Min_cycle;Max_cycle;Signal;HPM_P1;HPM_P2
2021/04/21 00:02:18;;;;;;;3.17;2.30;;;;;;;;;;5110520;28;20035;-74
2021/04/21 00:04:45;;;;;;;2.92;2.30;;;;;;;;;;5110957;28;20027;-74
2021/04/21 00:07:12;;;;;;;1.95;1.75;;;;;;;;;;5110692;28;20050;-74
2021/04/21 00:09:38;;;;;;;1.80;1.42;;;;;;;;;;5110113;28;20039;-75
2021/04/21 00:12:05;;;;;;;2.72;1.98;;;;;;;;;;5110387;28;20433;-74
2021/04/21 00:14:31;;;;;;;2.47;1.90;;;;;;;;;;5110342;28;20035;-74
2021/04/21 00:16:58;;;;;;;1.92;1.77;;;;;;;;;;5111006;28;20035;-74
2021/04/21 00:19:26;;;;;;;2.22;1.95;;;;;;;;;;5109946;28;20355;-74
2021/04/21 00:21:52;;;;;;;1.88;1.77;;;;;;;;;;5076306;28;20036;-74
2021/04/21 00:24:18;;;;;;;1.92;1.80;;;;;;;;;;5069610;28;20398;-74
2021/04/21 00:26:47;;;;;;;3.28;2.28;;;;;;;;;;5070054;28;20103;-74
2021/04/21 00:29:13;;;;;;;2.30;2.10;;;;;;;;;;5069487;28;20075;-74
2021/04/21 00:31:40;;;;;;;1.80;1.70;;;;;;;;;;5069648;28;20025;-74
2021/04/21 00:34:07;;;;;;;2.58;1.92;;;;;;;;;;5069648;28;20028;-75
2021/04/21 00:36:34;;;;;;;2.08;1.95;;;;;;;;;;5069185;28;20087;-74
2021/04/21 00:39:01;;;;;;;2.10;1.90;;;;;;;;;;5073263;28;20396;-74
2021/04/21 00:41:31;;;;;;;1.55;1.45;;;;;;;;;;5088580;28;20063;-74
2021/04/21 00:44:19;;;;;;;1.80;1.70;;;;;;;;;;5090241;28;20078;-74
2021/04/21 00:46:50;;;;;;;2.28;2.08;;;;;;;;;;5089748;28;20077;-74
2021/04/21 00:49:23;;;;;;;2.67;2.17;;;;;;;;;;5088809;28;20027;-74
2021/04/21 00:52:02;;;;;;;2.20;2.08;;;;;;;;;;5089711;28;20100;-75
2021/04/21 00:54:35;;;;;;;1.58;1.48;;;;;;;;;;5088548;28;20474;-74
2021/04/21 00:57:01;;;;;;;;;;;;;;;;;;5090387;28;20043;-75
2021/04/21 00:59:34;;;;;;;1.83;1.73;;;;;;;;;;5088977;28;19908;-74
2021/04/21 01:02:01;;;;;;;1.95;1.65;;;;;;;;;;5089049;28;20055;-74
2021/04/21 01:04:27;;;;;;;2.53;1.70;;;;;;;;;;5089120;28;20028;-74
2021/04/21 01:06:54;;;;;;;1.83;1.70;;;;;;;;;;5089559;28;20020;-74
2021/04/21 01:09:22;;;;;;;1.73;1.63;;;;;;;;;;5088434;28;20483;-74
2021/04/21 01:11:58;;;;;;;1.45;1.33;;;;;;;;;;5089155;28;20295;-74
2021/04/21 01:14:28;;;;;;;1.67;1.38;;;;;;;;;;5088987;28;20028;-74
2021/04/21 01:17:00;;;;;;;2.65;1.50;;;;;;;;;;5089756;28;20089;-74
2021/04/21 01:19:32;;;;;;;1.42;1.33;;;;;;;;;;5089200;28;20100;-74
2021/04/21 01:22:02;;;;;;;2.08;1.60;;;;;;;;;;5089041;28;20063;-74
2021/04/21 01:24:35;;;;;;;1.35;1.25;;;;;;;;;;5089264;28;20063;-74
2021/04/21 01:27:01;;;;;;;1.47;1.37;;;;;;;;;;5089809;28;20034;-74
2021/04/21 01:29:27;;;;;;;1.67;1.58;;;;;;;;;;5088545;28;20462;-74
2021/04/21 01:31:54;;;;;;;1.38;1.27;;;;;;;;;;5089218;28;20096;-75
2021/04/21 01:34:22;;;;;;;1.63;1.52;;;;;;;;;;5088689;28;20028;-74
2021/04/21 01:36:49;;;;;;;2.35;1.63;;;;;;;;;;5089322;28;20035;-74
2021/04/21 01:39:15;;;;;;;2.05;1.85;;;;;;;;;;5088080;28;20506;-74
2021/04/21 01:41:43;;;;;;;3.08;2.03;;;;;;;;;;5089359;28;20028;-74
2021/04/21 01:44:13;;;;;;;2.28;2.08;;;;;;;;;;5089164;28;20028;-74
2021/04/21 01:46:41;;;;;;;1.45;1.35;;;;;;;;;;5088906;28;20104;-75
2021/04/21 01:49:28;;;;;;;1.73;1.52;;;;;;;;;;5088708;28;20446;-75
2021/04/21 01:52:06;;;;;;;1.45;1.35;;;;;;;;;;5088832;28;20356;-75
2021/04/21 01:54:33;;;;;;;1.35;1.15;;;;;;;;;;5088444;28;20164;-75
2021/04/21 01:57:04;;;;;;;1.20;1.10;;;;;;;;;;5088901;28;20502;-75
2021/04/21 01:59:37;;;;;;;3.22;1.70;;;;;;;;;;5088107;28;20024;-74
2021/04/21 02:02:07;;;;;;;1.98;1.67;;;;;;;;;;5088846;28;20372;-75
2021/04/21 02:04:33;;;;;;;1.77;1.52;;;;;;;;;;5089515;28;20076;-75
2021/04/21 02:07:09;;;;;;;1.38;1.27;;;;;;;;;;5092906;28;20092;-75
2021/04/21 02:09:38;;;;;;;1.30;1.20;;;;;;;;;;5091729;28;20498;-74
2021/04/21 02:12:07;;;;;;;0.82;0.82;;;;;;;;;;5092640;28;20395;-75
2021/04/21 02:14:42;;;;;;;1.50;1.40;;;;;;;;;;5091756;28;20028;-75
2021/04/21 02:17:20;;;;;;;1.70;1.60;;;;;;;;;;5092817;28;20063;-75
2021/04/21 02:19:48;;;;;;;2.20;2.00;;;;;;;;;;5092625;28;20024;-75
2021/04/21 02:22:14;;;;;;;1.60;1.33;;;;;;;;;;5091801;28;20035;-75
2021/04/21 02:24:43;;;;;;;1.08;1.02;;;;;;;;;;5092297;28;20032;-74
2021/04/21 02:27:09;;;;;;;1.38;1.27;;;;;;;;;;5093013;28;20035;-75
2021/04/21 02:29:55;;;;;;;0.82;0.82;;;;;;;;;;5091724;28;20024;-75
2021/04/21 02:32:40;;;;;;;1.83;1.42;;;;;;;;;;5091145;28;20024;-75
2021/04/21 02:35:26;;;;;;;1.67;1.38;;;;;;;;;;5092137;28;20051;-75
2021/04/21 02:37:55;;;;;;;1.35;1.15;;;;;;;;;;5091872;28;20121;-75
2021/04/21 02:40:37;;;;;;;0.93;0.90;;;;;;;;;;5072783;28;20445;-75
2021/04/21 02:43:07;;;;;;;1.00;1.00;;;;;;;;;;5092189;28;20381;-75
2021/04/21 02:45:33;;;;;;;1.40;1.30;;;;;;;;;;5091446;28;20032;-75
2021/04/21 02:48:17;;;;;;;2.17;1.80;;;;;;;;;;5092558;28;20052;-74
2021/04/21 02:51:03;;;;;;;0.80;0.80;;;;;;;;;;5091757;28;20070;-75
2021/04/21 02:53:37;;;;;;;1.33;1.20;;;;;;;;;;5077255;28;20036;-75
2021/04/21 02:56:13;;;;;;;2.00;1.30;;;;;;;;;;5091730;28;20024;-75
2021/04/21 02:58:58;;;;;;;1.48;1.38;;;;;;;;;;5091794;28;20471;-75
2021/04/21 03:01:43;;;;;;;1.48;1.38;;;;;;;;;;5091004;28;20024;-75
2021/04/21 03:04:12;;;;;;;1.55;1.45;;;;;;;;;;5091610;28;20387;-75
2021/04/21 03:06:49;;;;;;;1.50;1.40;;;;;;;;;;5091576;28;20070;-75
2021/04/21 03:09:19;;;;;;;1.48;1.13;;;;;;;;;;5091230;28;20027;-75
2021/04/21 03:11:46;;;;;;;1.35;1.25;;;;;;;;;;5091644;28;20028;-75
2021/04/21 03:14:22;;;;;;;1.25;1.13;;;;;;;;;;5091389;28;20083;-74
2021/04/21 03:16:54;;;;;;;1.77;1.67;;;;;;;;;;5090263;28;20046;-74
2021/04/21 03:19:23;;;;;;;1.80;1.58;;;;;;;;;;5090818;28;20040;-74
2021/04/21 03:21:53;;;;;;;1.23;0.90;;;;;;;;;;5091365;28;20106;-74
2021/04/21 03:24:22;;;;;;;1.23;1.05;;;;;;;;;;5090866;28;20050;-74
2021/04/21 03:26:50;;;;;;;1.27;0.95;;;;;;;;;;5091689;28;20475;-75
2021/04/21 03:29:18;;;;;;;1.25;1.20;;;;;;;;;;5090677;28;20428;-75
2021/04/21 03:31:46;;;;;;;1.67;1.35;;;;;;;;;;5090778;28;20100;-74
2021/04/21 03:34:14;;;;;;;1.95;1.40;;;;;;;;;;5090651;28;20030;-74
2021/04/21 03:36:41;;;;;;;1.17;1.08;;;;;;;;;;5090755;28;20493;-75
2021/04/21 03:39:08;;;;;;;1.60;1.50;;;;;;;;;;5090286;28;20080;-75
2021/04/21 03:41:34;;;;;;;2.22;1.40;;;;;;;;;;5090118;28;20047;-75
2021/04/21 03:44:00;;;;;;;1.65;1.23;;;;;;;;;;5090934;28;20027;-75
2021/04/21 03:46:27;;;;;;;1.30;1.20;;;;;;;;;;5090543;28;20475;-74
2021/04/21 03:48:53;;;;;;;1.23;1.00;;;;;;;;;;5091162;28;20020;-75
2021/04/21 03:51:21;;;;;;;1.88;1.00;;;;;;;;;;5090149;28;20032;-74
2021/04/21 03:53:48;;;;;;;1.35;1.25;;;;;;;;;;5090857;28;20084;-75
2021/04/21 03:56:18;;;;;;;1.48;1.38;;;;;;;;;;5107484;28;20031;-74
2021/04/21 03:58:46;;;;;;;1.10;1.00;;;;;;;;;;5110921;28;20027;-75
2021/04/21 04:01:20;;;;;;;1.10;1.00;;;;;;;;;;5111117;28;20048;-74
2021/04/21 04:03:56;;;;;;;0.90;0.90;;;;;;;;;;5111070;28;20031;-74
2021/04/21 04:06:41;;;;;;;1.50;1.40;;;;;;;;;;5110212;28;20020;-74
2021/04/21 04:09:08;;;;;;;1.95;1.00;;;;;;;;;;5110747;28;20051;-75
2021/04/21 04:11:38;;;;;;;2.03;1.25;;;;;;;;;;5109632;28;20553;-74
2021/04/21 04:14:13;;;;;;;1.55;1.30;;;;;;;;;;5110738;28;20437;-75
2021/04/21 04:16:40;;;;;;;1.75;0.98;;;;;;;;;;5109862;28;20482;-74
2021/04/21 04:19:07;;;;;;;1.70;1.60;;;;;;;;;;5110356;28;20019;-75
2021/04/21 04:21:34;;;;;;;0.80;0.70;;;;;;;;;;5081363;28;20087;-75
2021/04/21 04:24:01;;;;;;;3.80;1.40;;;;;;;;;;5068938;28;20032;-75
2021/04/21 04:26:27;;;;;;;1.00;1.00;;;;;;;;;;5069289;28;20029;-75
2021/04/21 04:28:54;;;;;;;1.23;1.13;;;;;;;;;;5070322;28;20458;-75
2021/04/21 04:31:21;;;;;;;1.08;0.98;;;;;;;;;;5069003;28;20111;-74
2021/04/21 04:33:50;;;;;;;1.25;1.20;;;;;;;;;;5070030;28;20378;-74
2021/04/21 04:36:16;;;;;;;0.85;0.85;;;;;;;;;;5069059;28;20025;-74
2021/04/21 04:38:43;;;;;;;1.77;1.17;;;;;;;;;;5070621;28;20024;-75
2021/04/21 04:41:10;;;;;;;2.28;2.05;;;;;;;;;;5089721;28;20051;-75
2021/04/21 04:43:36;;;;;;;1.10;1.02;;;;;;;;;;5089224;28;20036;-75
2021/04/21 04:46:04;;;;;;;1.55;1.23;;;;;;;;;;5090191;28;20462;-75
2021/04/21 04:48:39;;;;;;;1.15;1.15;;;;;;;;;;5089263;28;20035;-74
2021/04/21 04:51:06;;;;;;;1.20;1.10;;;;;;;;;;5089541;28;20243;-75
2021/04/21 04:53:34;;;;;;;1.20;1.10;;;;;;;;;;5088975;28;20103;-75
2021/04/21 04:56:01;;;;;;;1.20;1.10;;;;;;;;;;5089790;28;20145;-74
2021/04/21 04:58:28;;;;;;;1.15;1.05;;;;;;;;;;5088889;28;20024;-74
2021/04/21 05:01:03;;;;;;;1.40;1.30;;;;;;;;;;5089626;28;20060;-75
2021/04/21 05:03:31;;;;;;;1.40;0.98;;;;;;;;;;5088920;28;20027;-75
2021/04/21 05:05:58;;;;;;;1.30;1.05;;;;;;;;;;5089821;28;20035;-75
2021/04/21 05:08:28;;;;;;;1.48;1.13;;;;;;;;;;5088788;28;20032;-74
2021/04/21 05:11:04;;;;;;;1.58;1.20;;;;;;;;;;5090235;28;20035;-74
2021/04/21 05:13:33;;;;;;;1.10;1.10;;;;;;;;;;5088814;28;20436;-74
2021/04/21 05:16:28;;;;;;;1.58;1.30;;;;;;;;;;5089507;28;20024;-75
2021/04/21 05:19:10;;;;;;;1.45;1.30;;;;;;;;;;5089338;28;20036;-74
2021/04/21 05:21:54;;;;;;;1.35;1.10;;;;;;;;;;5088815;28;20055;-75
2021/04/21 05:24:32;;;;;;;1.15;0.90;;;;;;;;;;5088956;28;20466;-74
2021/04/21 05:26:58;;;;;;;1.50;1.40;;;;;;;;;;5089801;28;20114;-74
2021/04/21 05:29:40;;;;;;;2.10;1.67;;;;;;;;;;5088820;28;20493;-74
2021/04/21 05:32:18;;;;;;;1.30;1.20;;;;;;;;;;5089496;28;20120;-74
2021/04/21 05:34:56;;;;;;;1.05;1.05;;;;;;;;;;5089318;28;20028;-75
2021/04/21 05:37:40;;;;;;;1.13;1.13;;;;;;;;;;5088618;28;20118;-74
2021/04/21 05:40:13;;;;;;;1.13;1.02;;;;;;;;;;5091239;28;20135;-74
2021/04/21 05:42:54;;;;;;;1.15;1.05;;;;;;;;;;5092984;28;20109;-75
2021/04/21 05:45:20;;;;;;;1.80;1.70;;;;;;;;;;5092862;28;20459;-74
2021/04/21 05:48:05;;;;;;;1.17;1.10;;;;;;;;;;5090775;28;20362;-74
2021/04/21 05:50:40;;;;;;;2.55;1.88;;;;;;;;;;5091866;28;20436;-75
2021/04/21 05:53:29;;;;;;;1.70;1.48;;;;;;;;;;5091163;28;20127;-74
2021/04/21 05:56:14;;;;;;;1.83;1.73;;;;;;;;;;5054864;28;20051;-74
2021/04/21 05:58:46;;;;;;;2.40;1.90;;;;;;;;;;5087022;28;20043;-75
2021/04/21 06:01:26;;;;;;;1.15;0.88;;;;;;;;;;5072249;28;20487;-74
2021/04/21 06:03:57;;;;;;;1.05;0.90;;;;;;;;;;5078237;28;20055;-74
2021/04/21 06:06:23;;;;;;;2.22;1.50;;;;;;;;;;5073849;28;20020;-74
2021/04/21 06:08:50;;;;;;;1.13;1.13;;;;;;;;;;5072308;28;20025;-74
2021/04/21 06:11:32;;;;;;;3.40;1.05;;;;;;;;;;5070836;28;20471;-74
2021/04/21 06:14:00;;;;;;;3.10;1.27;;;;;;;;;;5071485;28;20088;-74
2021/04/21 06:16:27;;;;;;;2.95;1.25;;;;;;;;;;5072351;28;20095;-74
2021/04/21 06:19:00;;;;;;;1.48;1.38;;;;;;;;;;5086515;28;20566;-74
2021/04/21 06:21:28;;;;;;;3.28;1.25;;;;;;;;;;5073607;28;20452;-74
2021/04/21 06:23:54;;;;;;;1.25;1.02;;;;;;;;;;5079646;28;20077;-74
2021/04/21 06:26:22;;;;;;;4.05;1.90;;;;;;;;;;5086647;28;20184;-75
2021/04/21 06:29:05;;;;;;;2.38;1.65;;;;;;;;;;5075886;28;20028;-75
2021/04/21 06:31:44;;;;;;;1.17;1.08;;;;;;;;;;5073526;28;20067;-75
2021/04/21 06:34:11;;;;;;;2.85;1.75;;;;;;;;;;5069333;28;20051;-75
2021/04/21 06:36:52;;;;;;;2.97;1.67;;;;;;;;;;5085375;28;20054;-75
2021/04/21 06:39:20;;;;;;;1.80;1.27;;;;;;;;;;5082824;28;20069;-75
2021/04/21 06:41:47;;;;;;;3.03;1.40;;;;;;;;;;5090805;28;20031;-75
2021/04/21 06:44:14;;;;;;;2.33;1.55;;;;;;;;;;5095709;28;20080;-75
2021/04/21 06:46:40;;;;;;;3.88;1.60;;;;;;;;;;5104888;28;20099;-75
2021/04/21 06:49:06;;;;;;;2.03;1.17;;;;;;;;;;5066954;28;20530;-73
2021/04/21 06:51:34;;;;;;;3.30;1.30;;;;;;;;;;5071936;28;20024;-74
2021/04/21 06:54:00;;;;;;;1.85;1.35;;;;;;;;;;5079736;28;20039;-74
2021/04/21 06:56:33;;;;;;;4.57;1.40;;;;;;;;;;5108907;28;20378;-74
2021/04/21 06:59:00;;;;;;;3.80;1.53;;;;;;;;;;5096706;28;20031;-73
2021/04/21 07:01:29;;;;;;;4.93;1.63;;;;;;;;;;5093365;28;20320;-74
2021/04/21 07:04:13;;;;;;;2.10;1.70;;;;;;;;;;5099209;28;20110;-74
2021/04/21 07:06:40;;;;;;;1.58;1.02;;;;;;;;;;5070892;28;20605;-75
2021/04/21 07:09:13;;;;;;;1.35;1.25;;;;;;;;;;5069613;28;20029;-75
2021/04/21 07:11:39;;;;;;;1.88;1.73;;;;;;;;;;5070968;28;20039;-75
2021/04/21 07:14:06;;;;;;;2.90;1.13;;;;;;;;;;5070336;28;20028;-75
2021/04/21 07:16:33;;;;;;;2.75;1.63;;;;;;;;;;5085296;28;20093;-75
2021/04/21 07:19:01;;;;;;;1.38;1.17;;;;;;;;;;5092093;28;20482;-75
2021/04/21 07:21:30;;;;;;;3.28;1.50;;;;;;;;;;5090312;28;20024;-76
2021/04/21 07:23:57;;;;;;;1.05;1.00;;;;;;;;;;5086602;28;20035;-75
2021/04/21 07:26:30;;;;;;;7.85;2.60;;;;;;;;;;5088705;28;20043;-75
2021/04/21 07:28:57;;;;;;;2.45;1.48;;;;;;;;;;5096066;28;20471;-79
2021/04/21 07:31:23;;;;;;;1.75;1.63;;;;;;;;;;5084905;28;20023;-77
2021/04/21 07:33:50;;;;;;;1.17;1.08;;;;;;;;;;5099576;28;20040;-77
2021/04/21 07:36:17;;;;;;;5.20;1.13;;;;;;;;;;5070664;28;20514;-74
2021/04/21 07:38:52;;;;;;;3.95;1.42;;;;;;;;;;5073880;28;20475;-74
2021/04/21 07:41:32;;;;;;;1.73;1.30;;;;;;;;;;5109742;28;21745;-74
2021/04/21 07:43:58;;;;;;;3.78;1.63;;;;;;;;;;5110999;28;20398;-75
2021/04/21 07:46:24;;;;;;;2.20;0.93;;;;;;;;;;5110645;28;20024;-74
2021/04/21 07:48:51;;;;;;;1.35;0.80;;;;;;;;;;5104329;28;20115;-74
2021/04/21 07:51:21;;;;;;;1.38;1.27;;;;;;;;;;5090303;28;20028;-74
2021/04/21 07:53:50;;;;;;;3.90;1.65;;;;;;;;;;5090745;28;20039;-75
2021/04/21 07:56:17;;;;;;;2.60;1.08;;;;;;;;;;5090304;28;20455;-74
2021/04/21 07:58:43;;;;;;;2.25;1.42;;;;;;;;;;5090226;28;20483;-74
2021/04/21 08:01:09;;;;;;;6.93;1.10;;;;;;;;;;5089269;28;20069;-74
2021/04/21 08:03:36;;;;;;;2.13;1.27;;;;;;;;;;5089244;28;20035;-74
2021/04/21 08:06:02;;;;;;;3.78;1.30;;;;;;;;;;5090093;28;20111;-74
2021/04/21 08:08:35;;;;;;;0.95;0.85;;;;;;;;;;5088015;28;20059;-74
2021/04/21 08:11:04;;;;;;;3.03;1.70;;;;;;;;;;5090532;28;20032;-73
2021/04/21 08:13:43;;;;;;;1.25;0.90;;;;;;;;;;5099856;28;20115;-72
2021/04/21 08:16:30;;;;;;;3.15;1.13;;;;;;;;;;5110644;28;20031;-76
2021/04/21 08:18:56;;;;;;;1.58;1.20;;;;;;;;;;5095566;28;20032;-74
2021/04/21 08:21:41;;;;;;;0.80;0.80;;;;;;;;;;5088541;28;20077;-76
2021/04/21 08:24:12;;;;;;;2.35;1.00;;;;;;;;;;5089920;28;20023;-74
2021/04/21 08:26:39;;;;;;;1.98;1.70;;;;;;;;;;5089670;28;20035;-76
2021/04/21 08:29:08;;;;;;;1.80;1.27;;;;;;;;;;5090462;28;20020;-75
2021/04/21 08:31:35;;;;;;;1.60;1.08;;;;;;;;;;5089470;28;20089;-74
2021/04/21 08:34:01;;;;;;;0.88;0.82;;;;;;;;;;5090226;28;20073;-74
2021/04/21 08:36:28;;;;;;;3.22;1.45;;;;;;;;;;5089182;28;20031;-74
2021/04/21 08:38:54;;;;;;;0.90;0.80;;;;;;;;;;5089862;28;20032;-80
2021/04/21 08:41:21;;;;;;;1.63;1.50;;;;;;;;;;5089431;28;20040;-74
2021/04/21 08:43:48;;;;;;;1.20;1.10;;;;;;;;;;5090011;28;20028;-74
2021/04/21 08:46:15;;;;;;;2.28;1.60;;;;;;;;;;5089132;28;20050;-73
2021/04/21 08:48:42;;;;;;;2.80;1.70;;;;;;;;;;5106577;28;20016;-75
2021/04/21 08:51:08;;;;;;;2.72;1.63;;;;;;;;;;5110822;28;20031;-74
2021/04/21 08:53:38;;;;;;;1.95;1.58;;;;;;;;;;5109231;28;20034;-75
2021/04/21 08:56:07;;;;;;;1.60;1.20;;;;;;;;;;5110422;28;20431;-72
2021/04/21 08:58:33;;;;;;;1.75;1.52;;;;;;;;;;5109412;28;20588;-78
2021/04/21 09:01:01;;;;;;;1.77;1.48;;;;;;;;;;5107765;28;20027;-74
2021/04/21 09:03:27;;;;;;;3.75;2.08;;;;;;;;;;5088428;28;20028;-74
2021/04/21 09:05:54;;;;;;;4.28;1.67;;;;;;;;;;5089376;28;20035;-74
2021/04/21 09:08:20;;;;;;;3.13;1.67;;;;;;;;;;5088400;28;20047;-74
2021/04/21 09:10:47;;;;;;;2.67;1.60;;;;;;;;;;5089886;28;20024;-75
2021/04/21 09:13:14;;;;;;;4.57;1.85;;;;;;;;;;5089111;28;20514;-74
2021/04/21 09:15:40;;;;;;;2.50;2.00;;;;;;;;;;5087917;28;20065;-72
2021/04/21 09:18:06;;;;;;;2.72;1.90;;;;;;;;;;5089786;28;20127;-75
2021/04/21 09:20:32;;;;;;;3.22;1.42;;;;;;;;;;5088650;28;20051;-75
2021/04/21 09:23:03;;;;;;;2.55;1.92;;;;;;;;;;5092718;28;20038;-74
2021/04/21 09:25:32;;;;;;;2.70;2.10;;;;;;;;;;5108483;28;20413;-73
2021/04/21 09:27:58;;;;;;;3.00;2.33;;;;;;;;;;5109572;28;20515;-75
2021/04/21 09:30:26;;;;;;;2.40;1.20;;;;;;;;;;5108934;28;20178;-74
2021/04/21 09:32:53;;;;;;;2.50;1.88;;;;;;;;;;5110171;28;20042;-75
2021/04/21 09:35:22;;;;;;;3.85;1.60;;;;;;;;;;5109367;28;20020;-74
2021/04/21 09:37:48;;;;;;;3.15;2.15;;;;;;;;;;5101901;28;20043;-75
2021/04/21 09:40:15;;;;;;;10.00;2.85;;;;;;;;;;5108914;28;20399;-74
2021/04/21 09:42:41;;;;;;;4.30;1.33;;;;;;;;;;5074737;28;20024;-74
2021/04/21 09:45:07;;;;;;;2.10;1.65;;;;;;;;;;5069222;28;20067;-73
2021/04/21 09:47:34;;;;;;;5.15;2.15;;;;;;;;;;5084687;28;20035;-75
2021/04/21 09:50:00;;;;;;;2.28;1.38;;;;;;;;;;5089346;28;20027;-75
2021/04/21 09:52:27;;;;;;;3.58;1.20;;;;;;;;;;5078822;28;20029;-75
2021/04/21 09:54:53;;;;;;;1.90;1.63;;;;;;;;;;5068980;28;20475;-74
2021/04/21 09:57:23;;;;;;;1.83;1.52;;;;;;;;;;5067902;28;20047;-76
2021/04/21 10:00:07;;;;;;;3.85;1.70;;;;;;;;;;5068698;28;20037;-74
2021/04/21 10:02:37;;;;;;;3.75;2.00;;;;;;;;;;5067933;28;20789;-74
2021/04/21 10:05:22;;;;;;;1.50;1.40;;;;;;;;;;5069120;28;20032;-75
2021/04/21 10:07:48;;;;;;;1.60;1.50;;;;;;;;;;5104919;28;20092;-75
2021/04/21 10:10:26;;;;;;;3.00;1.55;;;;;;;;;;5100740;28;20028;-74
2021/04/21 10:12:55;;;;;;;4.93;1.45;;;;;;;;;;5088594;28;20375;-75
2021/04/21 10:15:29;;;;;;;1.23;1.13;;;;;;;;;;5088190;28;20058;-74
2021/04/21 10:17:57;;;;;;;2.35;1.40;;;;;;;;;;5088982;28;20040;-74
2021/04/21 10:20:24;;;;;;;3.28;1.70;;;;;;;;;;5095791;28;20166;-74
2021/04/21 10:22:50;;;;;;;1.65;1.50;;;;;;;;;;5067478;28;20464;-74
2021/04/21 10:25:16;;;;;;;3.38;1.40;;;;;;;;;;5068903;28;20424;-74
2021/04/21 10:27:43;;;;;;;2.20;1.60;;;;;;;;;;5072692;28;20016;-75
2021/04/21 10:30:10;;;;;;;1.88;1.55;;;;;;;;;;5071593;28;20040;-75
2021/04/21 10:32:36;;;;;;;2.75;1.60;;;;;;;;;;5071288;28;20028;-76
2021/04/21 10:35:03;;;;;;;1.90;1.80;;;;;;;;;;5072702;28;20479;-75
2021/04/21 10:37:33;;;;;;;4.25;2.90;;;;;;;;;;5071588;28;20037;-75
2021/04/21 10:40:00;;;;;;;4.82;1.63;;;;;;;;;;5084019;28;20048;-76
2021/04/21 10:42:26;;;;;;;1.63;1.52;;;;;;;;;;5092203;28;20055;-76
2021/04/21 10:44:53;;;;;;;1.63;1.33;;;;;;;;;;5092919;28;20447;-75
2021/04/21 10:47:25;;;;;;;1.98;1.67;;;;;;;;;;5091612;28;20498;-75
2021/04/21 10:49:56;;;;;;;2.03;1.83;;;;;;;;;;5093036;28;20548;-75
2021/04/21 10:52:23;;;;;;;1.58;1.48;;;;;;;;;;5091392;28;20047;-75
2021/04/21 10:54:50;;;;;;;5.57;1.95;;;;;;;;;;5092561;28;20028;-75
2021/04/21 10:57:22;;;;;;;1.40;1.30;;;;;;;;;;5073406;28;20359;-75
2021/04/21 11:00:03;;;;;;;1.88;1.40;;;;;;;;;;5092177;28;20031;-75
2021/04/21 11:02:50;;;;;;;2.63;2.20;;;;;;;;;;5091273;28;20028;-75
2021/04/21 11:05:20;;;;;;;3.75;1.60;;;;;;;;;;5091585;28;20062;-75
2021/04/21 11:08:07;;;;;;;2.95;2.10;;;;;;;;;;5091869;28;20091;-75
2021/04/21 11:10:33;;;;;;;2.75;1.33;;;;;;;;;;5091000;28;20032;-75
2021/04/21 11:13:00;;;;;;;3.38;1.85;;;;;;;;;;5092068;28;20028;-75
2021/04/21 11:15:39;;;;;;;1.83;1.73;;;;;;;;;;5089868;28;20085;-74
2021/04/21 11:18:11;;;;;;;1.70;1.60;;;;;;;;;;5085823;28;20043;-75
2021/04/21 11:20:47;;;;;;;2.05;1.83;;;;;;;;;;5091268;28;20059;-75
2021/04/21 11:23:31;;;;;;;3.22;2.25;;;;;;;;;;5091476;28;20111;-74
2021/04/21 11:26:16;;;;;;;3.17;2.25;;;;;;;;;;5091953;28;20367;-73
2021/04/21 11:28:55;;;;;;;3.40;3.10;;;;;;;;;;5090926;28;20462;-77
2021/04/21 11:31:22;;;;;;;3.55;3.25;;;;;;;;;;5091536;28;20060;-76
2021/04/21 11:33:49;;;;;;;3.63;2.38;;;;;;;;;;5085593;28;20042;-77
2021/04/21 11:36:33;;;;;;;4.03;2.90;;;;;;;;;;5107335;28;20103;-76
2021/04/21 11:38:59;;;;;;;3.47;2.40;;;;;;;;;;5099697;28;20044;-76
2021/04/21 11:41:25;;;;;;;2.95;2.15;;;;;;;;;;5082350;28;20028;-77
2021/04/21 11:43:52;;;;;;;2.35;2.22;;;;;;;;;;5071053;28;20035;-75
2021/04/21 11:46:50;;;;;;;4.88;2.65;;;;;;;;;;5070927;28;20039;-80
2021/04/21 11:49:36;;;;;;;5.45;2.90;;;;;;;;;;5070430;28;20035;-73
2021/04/21 11:52:02;;;;;;;4.22;2.40;;;;;;;;;;5071247;28;20108;-77
2021/04/21 11:54:28;;;;;;;2.33;2.13;;;;;;;;;;5070234;28;20025;-77
2021/04/21 11:56:58;;;;;;;2.55;2.08;;;;;;;;;;5070921;28;20037;-76
2021/04/21 11:59:25;;;;;;;3.35;2.17;;;;;;;;;;5070059;28;20028;-77
2021/04/21 12:01:51;;;;;;;2.90;1.95;;;;;;;;;;5079355;28;20616;-78
2021/04/21 12:04:18;;;;;;;4.22;2.42;;;;;;;;;;5110642;28;20422;-76
2021/04/21 12:06:45;;;;;;;2.10;1.90;;;;;;;;;;5111559;28;20031;-77
2021/04/21 12:09:11;;;;;;;5.03;2.72;;;;;;;;;;5111139;28;20038;-76
2021/04/21 12:11:37;;;;;;;4.38;1.95;;;;;;;;;;5109629;28;20114;-76
2021/04/21 12:14:04;;;;;;;1.50;1.48;;;;;;;;;;5110535;28;20032;-76
2021/04/21 12:16:33;;;;;;;2.25;1.27;;;;;;;;;;5110593;28;20059;-73
2021/04/21 12:19:00;;;;;;;2.75;1.90;;;;;;;;;;5111411;28;20428;-74
2021/04/21 12:21:36;;;;;;;2.45;2.22;;;;;;;;;;5083642;28;20478;-77
2021/04/21 12:24:04;;;;;;;3.00;1.85;;;;;;;;;;5070642;28;20479;-77
2021/04/21 12:26:30;;;;;;;2.65;2.08;;;;;;;;;;5069650;28;20021;-75
2021/04/21 12:28:58;;;;;;;5.85;1.90;;;;;;;;;;5070952;28;20039;-76
2021/04/21 12:31:24;;;;;;;2.45;1.75;;;;;;;;;;5069716;28;20031;-75
2021/04/21 12:33:51;;;;;;;3.58;2.05;;;;;;;;;;5070100;28;20035;-75
2021/04/21 12:36:18;;;;;;;2.42;2.22;;;;;;;;;;5069436;28;20484;-74
2021/04/21 12:38:58;;;;;;;2.60;1.92;;;;;;;;;;5071121;28;20108;-74
2021/04/21 12:41:25;;;;;;;2.08;1.60;;;;;;;;;;5089510;28;20559;-75
2021/04/21 12:43:51;;;;;;;2.47;1.90;;;;;;;;;;5090207;28;20024;-75
2021/04/21 12:46:19;;;;;;;1.17;1.08;;;;;;;;;;5088630;28;20165;-74
2021/04/21 12:48:48;;;;;;;1.33;1.30;;;;;;;;;;5089291;28;20039;-75
2021/04/21 12:51:24;;;;;;;3.28;1.77;;;;;;;;;;5089416;28;20035;-74
2021/04/21 12:53:51;;;;;;;2.20;2.03;;;;;;;;;;5089859;28;20066;-74
2021/04/21 12:56:18;;;;;;;2.45;2.25;;;;;;;;;;5081574;28;20115;-75
2021/04/21 12:58:46;;;;;;;3.15;1.88;;;;;;;;;;5074427;28;20043;-75
2021/04/21 13:01:21;;;;;;;2.38;2.17;;;;;;;;;;5089715;28;20032;-75
2021/04/21 13:04:01;;;;;;;3.10;1.60;;;;;;;;;;5089773;28;20036;-75
2021/04/21 13:06:59;;;;;;;1.92;1.83;;;;;;;;;;5087818;28;20047;-76
2021/04/21 13:09:29;;;;;;;1.80;1.70;;;;;;;;;;5027176;28;20529;-75
2021/04/21 13:12:00;;;;;;;2.78;2.45;;;;;;;;;;5089848;28;20376;-76
2021/04/21 13:14:36;;;;;;;1.90;1.70;;;;;;;;;;5089293;28;20439;-75
2021/04/21 13:17:03;;;;;;;2.42;2.17;;;;;;;;;;5075140;28;20048;-76
2021/04/21 13:19:31;;;;;;;3.72;1.75;;;;;;;;;;5082935;28;20119;-76
2021/04/21 13:21:57;;;;;;;2.42;1.70;;;;;;;;;;5069533;28;20028;-75
2021/04/21 13:24:23;;;;;;;1.50;1.40;;;;;;;;;;5072776;28;20380;-76
2021/04/21 13:26:53;;;;;;;3.58;2.10;;;;;;;;;;5089662;28;20078;-76
2021/04/21 13:29:32;;;;;;;3.35;2.15;;;;;;;;;;5086284;28;20048;-75
2021/04/21 13:32:08;;;;;;;2.13;1.40;;;;;;;;;;5070775;28;20085;-75
2021/04/21 13:34:34;;;;;;;3.15;1.95;;;;;;;;;;5079657;28;20047;-76
2021/04/21 13:37:01;;;;;;;2.55;2.00;;;;;;;;;;5080929;28;20065;-76
2021/04/21 13:39:29;;;;;;;3.45;2.45;;;;;;;;;;5079704;28;20174;-76
2021/04/21 13:41:55;;;;;;;2.28;1.67;;;;;;;;;;5073328;28;20020;-76
2021/04/21 13:44:21;;;;;;;2.63;1.70;;;;;;;;;;5073642;28;20040;-76
2021/04/21 13:46:47;;;;;;;4.40;2.05;;;;;;;;;;5089963;28;20386;-76
2021/04/21 13:49:14;;;;;;;2.00;1.85;;;;;;;;;;5089325;28;20132;-75
2021/04/21 13:51:40;;;;;;;1.42;1.33;;;;;;;;;;5076471;28;20032;-76
2021/04/21 13:54:07;;;;;;;2.55;2.35;;;;;;;;;;5071136;28;20032;-76
2021/04/21 13:56:33;;;;;;;3.55;1.58;;;;;;;;;;5077171;28;20605;-76
2021/04/21 13:58:59;;;;;;;3.80;2.00;;;;;;;;;;5089654;28;20032;-76
2021/04/21 14:01:25;;;;;;;2.35;2.15;;;;;;;;;;5083263;28;20462;-75
2021/04/21 14:03:51;;;;;;;2.13;1.17;;;;;;;;;;5087834;28;20107;-75
2021/04/21 14:06:17;;;;;;;2.83;2.10;;;;;;;;;;5091346;28;20028;-75
2021/04/21 14:08:43;;;;;;;2.13;1.80;;;;;;;;;;5074046;28;20086;-76
2021/04/21 14:11:09;;;;;;;2.38;2.17;;;;;;;;;;5072938;28;20025;-76
2021/04/21 14:13:36;;;;;;;2.03;1.35;;;;;;;;;;5087178;28;20078;-76
2021/04/21 14:16:02;;;;;;;4.80;1.98;;;;;;;;;;5091232;28;20020;-76
2021/04/21 14:18:28;;;;;;;2.33;1.75;;;;;;;;;;5073893;28;20043;-76
2021/04/21 14:20:54;;;;;;;2.97;2.20;;;;;;;;;;5080363;28;20028;-76
2021/04/21 14:23:20;;;;;;;2.67;1.95;;;;;;;;;;5092779;28;20094;-76
2021/04/21 14:25:46;;;;;;;3.03;2.05;;;;;;;;;;5078824;28;20139;-76
2021/04/21 14:28:12;;;;;;;3.00;1.55;;;;;;;;;;5090243;28;20116;-75
2021/04/21 14:30:38;;;;;;;2.50;2.00;;;;;;;;;;5076654;28;20101;-75
2021/04/21 14:33:04;;;;;;;2.97;2.20;;;;;;;;;;5092036;28;20036;-76
2021/04/21 14:35:30;;;;;;;2.72;2.42;;;;;;;;;;5089753;28;20464;-77
2021/04/21 14:37:57;;;;;;;5.43;2.67;;;;;;;;;;5085837;28;20059;-76
2021/04/21 14:40:23;;;;;;;2.00;1.90;;;;;;;;;;5091067;28;20039;-76
2021/04/21 14:42:49;;;;;;;2.90;2.05;;;;;;;;;;5113177;28;20457;-75
2021/04/21 14:45:15;;;;;;;11.57;9.25;;;;;;;;;;5110248;28;20024;-76
2021/04/21 14:47:42;;;;;;;11.95;7.55;;;;;;;;;;5112143;28;20027;-76
2021/04/21 14:50:08;;;;;;;5.45;4.25;;;;;;;;;;5112795;28;20489;-75
2021/04/21 14:52:35;;;;;;;4.70;3.45;;;;;;;;;;5075332;28;20063;-75
2021/04/21 14:55:01;;;;;;;6.50;4.45;;;;;;;;;;5067692;28;20029;-75
2021/04/21 14:57:28;;;;;;;5.30;3.95;;;;;;;;;;5069131;28;20036;-76
2021/04/21 14:59:54;;;;;;;4.60;2.75;;;;;;;;;;5071670;28;20451;-76
2021/04/21 15:02:20;;;;;;;7.00;3.40;;;;;;;;;;5084293;28;20028;-77